Time;durP1;ratioP1;P1;durP2;ratioP2;P2;SDS_P1;SDS_P2;PMS_P1;PMS_P2;Temp;Humidity;BMP_temperature;BMP_pressure;BME280_temperature;BME280_humidity;BME280_pressure;Samples;Min_cycle;Max_cycle;Signal;HPM_P1;HPM_P2
2023/08/26 00:02:02;;;;;;;2.63;1.48;;;;;;;23.20;91.91;99972.44;5032040;28;20203;-64
2023/08/26 00:04:28;;;;;;;3.63;1.63;;;;;;;23.10;92.68;99976.41;5035725;28;20055;-60
2023/08/26 00:07:13;;;;;;;4.25;1.55;;;;;;;23.08;92.69;99970.59;5018173;28;20064;-61
2023/08/26 00:09:39;;;;;;;1.52;1.38;;;;;;;23.02;92.96;99972.41;4971586;28;20465;-61
2023/08/26 00:12:05;;;;;;;3.35;1.75;;;;;;;23.03;92.84;99962.97;4973928;28;20047;-64
2023/08/26 00:14:31;;;;;;;2.25;1.63;;;;;;;23.02;93.14;99969.69;4971830;28;20666;-59
2023/08/26 00:16:57;;;;;;;2.00;1.63;;;;;;;22.97;93.22;99969.53;4971550;28;20513;-61
2023/08/26 00:19:23;;;;;;;3.03;1.90;;;;;;;22.90;93.40;99975.31;4970689;28;20078;-64
2023/08/26 00:21:50;;;;;;;2.58;1.75;;;;;;;22.87;93.45;99968.75;4967966;28;20038;-61
2023/08/26 00:24:16;;;;;;;1.98;1.38;;;;;;;22.79;93.91;99961.22;4968925;28;20035;-61
2023/08/26 00:26:42;;;;;;;2.15;1.80;;;;;;;22.77;94.06;99942.47;4971409;28;20098;-61
2023/08/26 00:29:07;;;;;;;3.00;1.83;;;;;;;22.79;93.48;99953.00;4970762;28;20031;-62
2023/08/26 00:31:33;;;;;;;3.53;2.00;;;;;;;22.77;93.65;99964.44;4971431;28;20118;-60
2023/08/26 00:34:02;;;;;;;4.68;2.13;;;;;;;22.78;94.12;99960.50;4951385;28;20066;-61
2023/08/26 00:36:28;;;;;;;2.78;1.88;;;;;;;22.73;94.13;99957.56;4970844;28;20066;-62
2023/08/26 00:38:53;;;;;;;3.75;2.15;;;;;;;22.71;94.07;99957.25;4970728;28;20065;-64
2023/08/26 00:41:19;;;;;;;5.13;2.20;;;;;;;22.70;93.86;99956.50;4938989;28;20038;-63
2023/08/26 00:43:46;;;;;;;3.03;2.10;;;;;;;22.71;93.87;99957.25;4949942;28;20051;-63
2023/08/26 00:46:12;;;;;;;3.65;2.00;;;;;;;22.68;94.40;99942.47;4986158;28;20060;-61
2023/08/26 00:48:37;;;;;;;4.10;2.63;;;;;;;22.63;94.03;99945.03;5014197;28;20479;-61
2023/08/26 00:51:04;;;;;;;3.22;2.28;;;;;;;22.64;94.16;99941.84;5013359;28;20116;-61
2023/08/26 00:53:30;;;;;;;2.30;1.85;;;;;;;22.57;94.75;99942.09;5013560;28;20017;-61
2023/08/26 00:55:55;;;;;;;3.67;2.22;;;;;;;22.56;95.04;99940.56;5011349;28;20562;-61
2023/08/26 00:58:21;;;;;;;4.63;2.75;;;;;;;22.50;95.17;99945.13;5013796;28;20041;-61
2023/08/26 01:00:48;;;;;;;3.55;2.47;;;;;;;22.52;94.93;99939.94;5013602;28;20025;-62
2023/08/26 01:03:13;;;;;;;3.33;1.90;;;;;;;22.54;95.06;99943.00;5013786;28;20498;-62
2023/08/26 01:05:39;;;;;;;3.63;2.25;;;;;;;22.53;94.87;99944.19;5027351;28;20116;-58
2023/08/26 01:08:06;;;;;;;5.20;2.45;;;;;;;22.51;95.01;99943.91;5025915;28;20113;-64
2023/08/26 01:11:00;;;;;;;4.25;2.40;;;;;;;22.45;95.42;99956.69;5007003;28;20029;-61
2023/08/26 01:13:39;;;;;;;4.18;2.30;;;;;;;22.43;95.54;99948.16;5031312;28;20164;-59
2023/08/26 01:16:07;;;;;;;3.47;2.10;;;;;;;22.42;95.99;99952.09;5012521;28;20042;-58
2023/08/26 01:18:33;;;;;;;3.35;2.13;;;;;;;22.39;95.77;99955.75;5028981;28;20021;-61
2023/08/26 01:21:00;;;;;;;3.85;2.53;;;;;;;22.42;95.67;99961.09;5027161;28;20438;-62
2023/08/26 01:23:45;;;;;;;3.22;2.20;;;;;;;22.42;96.49;99957.59;5013235;28;20029;-61
2023/08/26 01:26:10;;;;;;;4.10;2.25;;;;;;;22.43;96.65;99967.38;5012466;28;20026;-59
2023/08/26 01:28:36;;;;;;;5.20;2.63;;;;;;;22.47;96.42;99961.72;5012440;28;20048;-61
2023/08/26 01:31:08;;;;;;;4.22;2.47;;;;;;;22.52;96.56;99952.91;5005620;28;20037;-61
2023/08/26 01:33:43;;;;;;;5.57;2.50;;;;;;;22.50;97.15;99947.88;5009054;28;20032;-61
2023/08/26 01:36:13;;;;;;;3.13;2.40;;;;;;;22.52;96.72;99952.91;5011745;28;20029;-60
2023/08/26 01:38:40;;;;;;;5.72;2.65;;;;;;;22.53;96.99;99946.94;5030768;28;20112;-58
2023/08/26 01:41:08;;;;;;;6.40;2.97;;;;;;;22.53;97.03;99946.19;5013641;28;20024;-61
2023/08/26 01:43:36;;;;;;;7.35;2.50;;;;;;;22.52;96.96;99939.16;4989909;28;20037;-61
2023/08/26 01:46:01;;;;;;;4.72;2.83;;;;;;;22.48;97.47;99946.78;5031248;28;20102;-60
2023/08/26 01:48:27;;;;;;;4.40;2.53;;;;;;;22.53;97.46;99944.19;5011317;28;20021;-62
2023/08/26 01:50:52;;;;;;;3.65;2.40;;;;;;;22.54;97.64;99939.47;5010399;28;20488;-62
2023/08/26 01:53:38;;;;;;;8.15;2.63;;;;;;;22.54;97.44;99940.25;5012196;28;20491;-64
2023/08/26 01:56:04;;;;;;;5.28;2.78;;;;;;;22.53;98.20;99946.19;4914967;29;20048;-62
2023/08/26 01:58:30;;;;;;;6.95;2.65;;;;;;;22.57;98.04;99942.09;4930997;29;20102;-64
2023/08/26 02:00:56;;;;;;;3.85;2.63;;;;;;;22.61;97.75;99945.47;4913218;29;20054;-60
2023/08/26 02:03:21;;;;;;;4.50;2.83;;;;;;;22.63;97.52;99945.78;4919161;29;20156;-63
2023/08/26 02:05:46;;;;;;;7.00;3.35;;;;;;;22.62;97.56;99944.28;4915301;29;20019;-62
2023/08/26 02:08:12;;;;;;;7.63;3.45;;;;;;;22.63;97.63;99936.81;4915083;29;20043;-61
2023/08/26 02:10:38;;;;;;;9.15;3.70;;;;;;;22.61;97.31;99923.50;4920177;29;20048;-60
2023/08/26 02:13:03;;;;;;;6.18;3.17;;;;;;;22.59;96.96;99930.69;4904720;29;20059;-62
2023/08/26 02:15:29;;;;;;;6.45;3.22;;;;;;;22.52;97.26;99939.94;4915044;29;20044;-63
2023/08/26 02:17:55;;;;;;;5.63;3.17;;;;;;;22.48;97.16;99919.34;4908380;29;20044;-61
2023/08/26 02:20:21;;;;;;;7.28;3.17;;;;;;;22.46;97.06;99925.28;4912604;29;20066;-59
2023/08/26 02:22:46;;;;;;;6.72;3.15;;;;;;;22.38;96.96;99926.78;4923818;29;20063;-60
2023/08/26 02:25:12;;;;;;;10.88;3.60;;;;;;;22.35;97.13;99919.47;4907745;29;20044;-61
2023/08/26 02:27:37;;;;;;;7.07;3.53;;;;;;;22.33;97.28;99928.16;4924022;29;20035;-61
2023/08/26 02:30:03;;;;;;;8.57;3.53;;;;;;;22.28;97.28;99933.44;4930255;29;20039;-63
2023/08/26 02:32:29;;;;;;;5.63;3.33;;;;;;;22.30;97.18;99922.78;4956121;28;20151;-61
2023/08/26 02:34:54;;;;;;;8.27;3.63;;;;;;;22.27;97.11;99926.44;5011680;28;20685;-60
2023/08/26 02:37:21;;;;;;;6.50;3.75;;;;;;;22.26;96.95;99927.66;5028303;28;20432;-61
2023/08/26 02:39:46;;;;;;;6.45;3.13;;;;;;;22.20;97.04;99929.47;5008590;28;20063;-61
2023/08/26 02:42:12;;;;;;;7.70;3.70;;;;;;;22.14;97.14;99929.28;5011489;28;20061;-61
2023/08/26 02:44:37;;;;;;;9.48;3.97;;;;;;;22.18;97.62;99937.38;5012081;28;20021;-60
2023/08/26 02:47:03;;;;;;;6.32;3.65;;;;;;;22.21;97.49;99942.72;5030243;28;20041;-61
2023/08/26 02:49:29;;;;;;;8.90;4.05;;;;;;;22.21;97.94;99931.75;5023547;28;20112;-63
2023/08/26 02:51:54;;;;;;;9.13;4.32;;;;;;;22.22;98.07;99921.56;5010094;28;20353;-63
2023/08/26 02:54:19;;;;;;;5.22;2.95;;;;;;;22.19;98.59;99916.94;5011978;28;20021;-60
2023/08/26 02:56:45;;;;;;;8.70;3.92;;;;;;;22.18;98.71;99923.66;5012039;28;20557;-61
2023/08/26 02:59:10;;;;;;;9.55;3.65;;;;;;;22.20;98.48;99934.97;5011507;28;20034;-61
2023/08/26 03:01:38;;;;;;;8.60;3.75;;;;;;;22.21;98.17;99931.75;5029703;28;20045;-61
2023/08/26 03:04:04;;;;;;;7.55;4.03;;;;;;;22.23;98.09;99936.78;5008781;28;20025;-61
2023/08/26 03:06:30;;;;;;;6.20;3.13;;;;;;;22.23;97.73;99937.56;5012444;28;20025;-64
2023/08/26 03:08:56;;;;;;;6.85;3.70;;;;;;;22.22;98.48;99932.53;4995992;28;20546;-61
2023/08/26 03:11:41;;;;;;;7.82;3.40;;;;;;;22.14;98.48;99925.78;5011175;28;20037;-59
2023/08/26 03:14:07;;;;;;;6.68;3.55;;;;;;;22.09;98.80;99929.88;4949570;28;20049;-62
2023/08/26 03:16:32;;;;;;;8.43;3.55;;;;;;;22.07;98.47;99915.84;4960145;28;20464;-60
2023/08/26 03:18:58;;;;;;;7.93;4.03;;;;;;;22.06;98.39;99925.28;4967050;28;20047;-58
2023/08/26 03:21:24;;;;;;;7.00;3.72;;;;;;;21.99;98.77;99922.81;4930441;28;20035;-61
2023/08/26 03:23:51;;;;;;;8.60;3.92;;;;;;;22.00;98.60;99926.31;4952203;28;20041;-64
2023/08/26 03:26:17;;;;;;;8.70;4.45;;;;;;;21.96;98.67;99922.94;4930331;28;20047;-61
2023/08/26 03:28:44;;;;;;;6.47;3.58;;;;;;;21.97;98.25;99932.72;4952484;28;20027;-60
2023/08/26 03:31:10;;;;;;;7.97;3.97;;;;;;;21.94;99.02;99930.88;4950677;28;20070;-61
2023/08/26 03:33:42;;;;;;;8.30;3.97;;;;;;;21.92;98.60;99931.31;4950084;28;20097;-61
2023/08/26 03:36:08;;;;;;;8.00;3.97;;;;;;;21.79;98.89;99930.63;4950171;28;20034;-61
2023/08/26 03:38:34;;;;;;;8.18;4.15;;;;;;;21.83;98.83;99936.75;4949360;28;20174;-58
2023/08/26 03:41:06;;;;;;;7.80;4.00;;;;;;;21.87;98.76;99950.34;4968462;28;20079;-62
2023/08/26 03:43:32;;;;;;;7.75;4.07;;;;;;;21.88;98.63;99944.41;4935277;28;20405;-61
2023/08/26 03:45:58;;;;;;;11.60;4.20;;;;;;;21.82;99.04;99948.16;4965256;28;20039;-61
2023/08/26 03:48:24;;;;;;;9.15;4.10;;;;;;;21.75;99.71;99945.66;4967292;28;20054;-62
2023/08/26 03:50:50;;;;;;;8.55;4.60;;;;;;;21.81;99.35;99939.19;4958821;28;20463;-61
2023/08/26 03:53:17;;;;;;;9.80;4.78;;;;;;;21.79;99.67;99940.81;5013883;28;20029;-64
2023/08/26 03:55:44;;;;;;;7.35;4.00;;;;;;;21.82;99.71;99945.41;5014618;28;20033;-61
2023/08/26 03:58:10;;;;;;;8.18;3.83;;;;;;;21.86;99.28;99937.81;5012590;28;20029;-61
2023/08/26 04:00:36;;;;;;;6.18;3.28;;;;;;;21.87;98.47;99939.38;5015375;28;20037;-60
2023/08/26 04:03:09;;;;;;;12.68;5.50;;;;;;;21.82;99.35;99932.47;5032529;28;20053;-61
2023/08/26 04:05:35;;;;;;;9.50;4.50;;;;;;;21.83;99.15;99936.00;5011913;28;20030;-62
2023/08/26 04:08:00;;;;;;;9.65;4.32;;;;;;;21.77;99.43;99938.53;5033147;28;20484;-64
2023/08/26 04:10:26;;;;;;;10.35;5.07;;;;;;;21.78;99.68;99948.25;5011903;28;20392;-61
2023/08/26 04:12:52;;;;;;;9.68;4.90;;;;;;;21.81;99.33;99949.38;5013988;28;20022;-61
2023/08/26 04:15:18;;;;;;;10.70;4.28;;;;;;;21.86;99.43;99948.78;4993216;28;20523;-61
2023/08/26 04:17:44;;;;;;;9.43;4.68;;;;;;;21.93;99.20;99952.03;5031781;28;20036;-61
2023/08/26 04:20:11;;;;;;;10.75;4.93;;;;;;;21.96;98.96;99955.88;5014967;28;20403;-61
2023/08/26 04:22:37;;;;;;;10.07;3.90;;;;;;;21.86;99.55;99960.53;4998134;28;20121;-61
2023/08/26 04:25:05;;;;;;;11.23;4.28;;;;;;;21.90;99.49;99958.44;5024380;28;20025;-61
2023/08/26 04:27:33;;;;;;;16.83;5.35;;;;;;;21.92;99.37;99960.72;5012287;28;20035;-60
2023/08/26 04:29:59;;;;;;;9.98;4.38;;;;;;;21.88;99.23;99962.81;5013704;28;20460;-61
2023/08/26 04:32:25;;;;;;;10.02;4.63;;;;;;;21.89;99.34;99959.63;5057638;22;20111;-62
2023/08/26 04:34:51;;;;;;;10.70;4.55;;;;;;;21.86;99.71;99960.53;5055080;28;20044;-62
2023/08/26 04:37:20;;;;;;;10.98;4.85;;;;;;;21.76;100.00;99947.94;5055142;28;20074;-62
2023/08/26 04:39:47;;;;;;;11.07;5.18;;;;;;;21.51;100.00;99959.81;5037193;28;20059;-60
2023/08/26 04:42:13;;;;;;;10.02;3.83;;;;;;;21.68;100.00;99959.63;5052467;28;20052;-61
2023/08/26 04:44:38;;;;;;;11.27;5.15;;;;;;;21.79;100.00;99960.00;5075335;28;20115;-62
2023/08/26 04:47:05;;;;;;;12.45;5.22;;;;;;;21.85;100.00;99963.72;5052702;28;20029;-62
2023/08/26 04:49:34;;;;;;;7.88;4.28;;;;;;;21.84;100.00;99962.19;5071701;28;20036;-62
2023/08/26 04:52:00;;;;;;;8.98;4.47;;;;;;;21.87;100.00;99969.53;5046008;28;20147;-62
2023/08/26 04:54:25;;;;;;;11.35;5.10;;;;;;;21.84;100.00;99962.19;5051897;28;20111;-62
2023/08/26 04:56:51;;;;;;;12.73;5.25;;;;;;;21.88;100.00;99963.59;5056808;28;20122;-62
2023/08/26 04:59:16;;;;;;;11.30;5.03;;;;;;;21.95;100.00;99968.06;5051522;28;20052;-61
2023/08/26 05:01:42;;;;;;;9.68;4.63;;;;;;;21.96;100.00;99962.13;5067450;28;20021;-62
2023/08/26 05:04:07;;;;;;;9.48;4.22;;;;;;;22.01;100.00;99955.28;5058650;28;20079;-61
2023/08/26 05:06:33;;;;;;;12.75;5.35;;;;;;;22.01;99.75;99952.56;5069925;28;20115;-61
2023/08/26 05:08:58;;;;;;;10.60;4.55;;;;;;;22.02;99.82;99962.28;5052636;28;20375;-61
2023/08/26 05:11:24;;;;;;;13.65;5.38;;;;;;;22.06;99.64;99973.91;5053244;28;20028;-62
2023/08/26 05:13:49;;;;;;;12.30;4.95;;;;;;;22.12;99.24;99961.13;5048674;28;20024;-59
2023/08/26 05:16:15;;;;;;;9.80;5.05;;;;;;;22.03;99.40;99963.81;5057557;28;20510;-61
2023/08/26 05:18:41;;;;;;;11.05;4.95;;;;;;;22.08;99.31;99971.47;5052095;28;20103;-59
2023/08/26 05:21:06;;;;;;;11.35;4.65;;;;;;;22.11;99.12;99973.31;5069103;28;20043;-61
2023/08/26 05:23:32;;;;;;;10.40;5.05;;;;;;;22.14;98.87;99969.69;5052804;28;20035;-62
2023/08/26 05:25:58;;;;;;;9.05;4.72;;;;;;;22.16;98.66;99980.97;5052750;28;20032;-62
2023/08/26 05:28:23;;;;;;;11.82;5.03;;;;;;;22.20;98.40;99978.84;5052224;28;20502;-61
2023/08/26 05:30:49;;;;;;;10.93;4.75;;;;;;;22.13;98.42;99979.13;5050531;28;20410;-62
2023/08/26 05:33:15;;;;;;;11.35;4.63;;;;;;;22.14;98.30;99986.16;5051058;28;20036;-62
2023/08/26 05:35:40;;;;;;;14.20;5.05;;;;;;;22.16;98.43;99973.47;5068128;28;20047;-62
2023/08/26 05:38:06;;;;;;;13.90;5.03;;;;;;;22.19;98.49;99991.03;5035488;28;20071;-62
2023/08/26 05:40:32;;;;;;;14.98;5.22;;;;;;;22.19;98.33;99980.84;5050676;28;20706;-61
2023/08/26 05:42:59;;;;;;;19.60;5.65;;;;;;;22.26;97.87;99983.28;5052553;28;20032;-61
2023/08/26 05:45:25;;;;;;;14.35;5.40;;;;;;;22.31;97.45;99984.69;5055045;28;20102;-62
2023/08/26 05:47:54;;;;;;;15.93;5.43;;;;;;;22.33;97.18;99987.75;5050177;28;20032;-62
2023/08/26 05:50:20;;;;;;;13.23;5.80;;;;;;;22.34;97.21;99994.75;5068446;28;20108;-62
2023/08/26 05:52:45;;;;;;;15.75;6.25;;;;;;;22.36;96.98;99997.81;5050604;28;20107;-61
2023/08/26 05:55:11;;;;;;;19.05;6.63;;;;;;;22.45;96.37;100003.38;5049410;28;20028;-61
2023/08/26 05:57:38;;;;;;;11.75;5.22;;;;;;;22.48;96.45;100007.94;5053675;28;20490;-61
2023/08/26 06:00:06;;;;;;;15.00;6.28;;;;;;;22.53;96.61;100012.84;5051848;28;20090;-61
2023/08/26 06:02:42;;;;;;;16.10;6.35;;;;;;;22.52;95.96;100010.53;5055446;28;20028;-60
2023/08/26 06:05:08;;;;;;;17.55;5.07;;;;;;;22.44;95.06;100026.53;5052299;28;20407;-60
2023/08/26 06:07:34;;;;;;;17.05;4.80;;;;;;;22.41;95.59;100019.22;5047582;28;20027;-61
2023/08/26 06:10:01;;;;;;;13.00;5.30;;;;;;;22.43;95.47;100020.25;5052917;28;20032;-61
2023/08/26 06:12:26;;;;;;;15.38;6.05;;;;;;;22.47;94.79;100028.38;5067264;28;20085;-61
2023/08/26 06:14:52;;;;;;;13.95;5.00;;;;;;;22.49;94.21;100028.69;5047887;28;20040;-61
2023/08/26 06:17:17;;;;;;;12.20;5.10;;;;;;;22.49;93.94;100034.19;5057698;28;20037;-61
2023/08/26 06:19:43;;;;;;;12.23;5.30;;;;;;;22.51;94.28;100025.50;5048677;28;20029;-62
2023/08/26 06:22:08;;;;;;;14.43;4.97;;;;;;;22.60;94.01;100026.31;5069075;28;20621;-62
2023/08/26 06:24:35;;;;;;;13.23;5.28;;;;;;;22.63;93.59;100022.66;5051906;28;20078;-61
2023/08/26 06:27:00;;;;;;;14.60;5.60;;;;;;;22.69;93.77;100020.88;5052195;28;20406;-62
2023/08/26 06:29:26;;;;;;;16.92;5.82;;;;;;;22.74;93.45;100025.78;5050426;28;20024;-61
2023/08/26 06:31:52;;;;;;;13.02;5.18;;;;;;;22.93;92.55;100032.09;5048834;28;20024;-60
2023/08/26 06:34:18;;;;;;;13.18;4.88;;;;;;;23.01;91.00;100036.84;5056918;28;20029;-60
2023/08/26 06:36:45;;;;;;;15.35;5.45;;;;;;;23.11;90.29;100046.63;5051767;28;20026;-61
2023/08/26 06:39:11;;;;;;;11.50;3.90;;;;;;;23.21;90.15;100048.16;5052060;28;20028;-61
2023/08/26 06:41:37;;;;;;;10.32;3.53;;;;;;;23.29;88.92;100046.66;5065571;28;20119;-61
2023/08/26 06:44:04;;;;;;;8.77;4.22;;;;;;;23.29;88.50;100059.63;5052609;28;20035;-62
2023/08/26 06:46:31;;;;;;;11.43;4.82;;;;;;;23.17;86.33;100058.53;5051133;28;20036;-61
2023/08/26 06:48:58;;;;;;;5.97;3.53;;;;;;;23.17;87.08;100066.78;5052016;28;20081;-61
2023/08/26 06:51:24;;;;;;;9.30;4.25;;;;;;;23.15;86.75;100065.72;5068987;28;20510;-61
2023/08/26 06:53:50;;;;;;;9.30;3.45;;;;;;;23.04;86.18;100074.38;5066581;28;20032;-62
2023/08/26 06:56:16;;;;;;;6.25;3.45;;;;;;;22.97;85.47;100069.19;5055721;28;20028;-60
2023/08/26 06:58:41;;;;;;;12.00;3.50;;;;;;;23.08;85.19;100083.25;5068382;28;20048;-60
2023/08/26 07:01:07;;;;;;;7.97;2.97;;;;;;;23.17;84.97;100085.28;5069544;28;20116;-63
2023/08/26 07:03:32;;;;;;;6.10;2.92;;;;;;;23.22;84.38;100085.44;5068273;28;20032;-60
2023/08/26 07:05:58;;;;;;;5.70;3.08;;;;;;;23.22;83.26;100093.69;5069756;28;20025;-62
2023/08/26 07:08:23;;;;;;;6.72;2.40;;;;;;;23.15;81.92;100096.69;5061740;28;20656;-60
2023/08/26 07:10:49;;;;;;;6.18;2.67;;;;;;;23.10;81.12;100094.56;5066470;28;20028;-62
2023/08/26 07:13:15;;;;;;;3.42;2.17;;;;;;;23.01;81.31;100096.53;5067295;28;20036;-61
2023/08/26 07:15:40;;;;;;;4.95;2.25;;;;;;;23.04;81.70;100090.09;5068565;28;20032;-62
2023/08/26 07:18:06;;;;;;;6.50;2.65;;;;;;;23.21;81.32;100088.63;5068117;28;20032;-61
2023/08/26 07:20:32;;;;;;;3.40;1.80;;;;;;;23.44;81.57;100085.34;5048838;28;20124;-62
2023/08/26 07:22:58;;;;;;;3.90;2.15;;;;;;;23.76;79.96;100097.75;5066784;28;20031;-61
2023/08/26 07:25:23;;;;;;;5.38;2.35;;;;;;;24.02;77.76;100097.00;5072522;28;20059;-61
2023/08/26 07:27:49;;;;;;;3.30;1.90;;;;;;;24.19;76.48;100102.97;5073176;28;20456;-62
2023/08/26 07:30:14;;;;;;;4.97;2.17;;;;;;;24.26;75.84;100110.13;5072158;28;20382;-62
2023/08/26 07:32:41;;;;;;;3.90;1.70;;;;;;;24.32;74.42;100102.78;5069937;28;20047;-63
2023/08/26 07:35:08;;;;;;;3.17;1.60;;;;;;;24.41;73.82;100111.03;5072881;28;20120;-62
2023/08/26 07:37:33;;;;;;;3.78;1.77;;;;;;;24.43;73.37;100111.34;5061209;28;20395;-60
2023/08/26 07:40:01;;;;;;;2.40;1.38;;;;;;;24.39;73.13;100114.22;5070235;28;20028;-62
2023/08/26 07:42:27;;;;;;;2.78;1.40;;;;;;;24.45;71.95;100112.38;5058443;28;20529;-61
2023/08/26 07:44:52;;;;;;;2.72;1.33;;;;;;;24.48;70.99;100117.00;5067451;28;20060;-61
2023/08/26 07:47:20;;;;;;;1.42;1.10;;;;;;;24.51;70.97;100123.53;5061181;28;20384;-61
2023/08/26 07:49:45;;;;;;;1.77;1.05;;;;;;;24.48;70.55;100130.00;5055456;28;20020;-62
2023/08/26 07:52:11;;;;;;;2.75;1.50;;;;;;;24.45;69.96;100131.66;5049091;28;20510;-62
2023/08/26 07:54:36;;;;;;;2.70;1.35;;;;;;;24.40;70.48;100129.53;5058258;28;20495;-61
2023/08/26 07:57:02;;;;;;;1.58;0.95;;;;;;;24.42;70.53;100134.59;5060404;28;20160;-62
2023/08/26 07:59:27;;;;;;;2.13;1.30;;;;;;;24.48;70.61;100127.22;5033367;28;20075;-61
2023/08/26 08:01:53;;;;;;;3.47;1.60;;;;;;;24.52;69.61;100131.38;5067792;28;20036;-60
2023/08/26 08:04:18;;;;;;;2.30;1.27;;;;;;;24.52;70.22;100133.34;5069505;28;20069;-60
2023/08/26 08:06:44;;;;;;;1.42;1.20;;;;;;;24.60;70.83;100137.31;5068823;28;20510;-62
2023/08/26 08:09:09;;;;;;;1.85;1.15;;;;;;;24.66;70.65;100140.97;5066944;28;20485;-62
2023/08/26 08:11:35;;;;;;;1.20;0.98;;;;;;;24.81;69.58;100137.13;5067305;28;20037;-60
2023/08/26 08:14:00;;;;;;;1.35;1.02;;;;;;;24.99;70.46;100139.03;5070493;28;20059;-61
2023/08/26 08:16:26;;;;;;;2.72;1.67;;;;;;;25.04;69.84;100143.94;5072375;28;20024;-62
2023/08/26 08:18:51;;;;;;;2.35;1.50;;;;;;;25.00;68.70;100146.84;5070877;28;20027;-61
2023/08/26 08:21:17;;;;;;;2.10;1.45;;;;;;;24.95;68.12;100135.69;5069369;28;20063;-62
2023/08/26 08:23:43;;;;;;;3.33;1.17;;;;;;;24.75;69.30;100136.22;5067059;28;20047;-62
2023/08/26 08:26:11;;;;;;;2.28;1.38;;;;;;;24.80;68.83;100143.84;5069240;28;20508;-60
2023/08/26 08:28:36;;;;;;;1.70;1.20;;;;;;;24.74;68.76;100139.41;5037677;28;20166;-62
2023/08/26 08:31:02;;;;;;;4.35;1.40;;;;;;;24.64;68.52;100143.44;5071994;28;20449;-61
2023/08/26 08:33:27;;;;;;;2.60;1.42;;;;;;;24.56;68.21;100133.94;5068666;28;20028;-61
2023/08/26 08:35:53;;;;;;;1.98;1.20;;;;;;;24.38;66.20;100145.75;5071193;28;20020;-62
2023/08/26 08:38:18;;;;;;;2.17;1.42;;;;;;;24.24;66.75;100140.88;5065854;28;20083;-61
2023/08/26 08:40:44;;;;;;;1.50;1.13;;;;;;;24.15;66.79;100146.41;5069694;28;20033;-61
2023/08/26 08:43:12;;;;;;;1.77;0.93;;;;;;;24.09;67.66;100148.22;5068301;28;20410;-61
2023/08/26 08:45:38;;;;;;;3.25;1.02;;;;;;;24.04;67.60;100157.13;5069940;28;20040;-62
2023/08/26 08:48:03;;;;;;;2.50;1.13;;;;;;;23.95;68.54;100154.31;5071569;28;20078;-62
2023/08/26 08:50:31;;;;;;;3.72;1.05;;;;;;;23.89;68.84;100165.16;5053746;28;20402;-61
2023/08/26 08:52:58;;;;;;;1.58;1.05;;;;;;;23.82;68.71;100165.47;5069961;28;20033;-61
2023/08/26 08:55:24;;;;;;;2.10;0.88;;;;;;;23.70;68.68;100166.38;5067922;28;20043;-62
2023/08/26 08:57:52;;;;;;;0.93;0.70;;;;;;;23.62;69.08;100169.84;5070873;28;20111;-61
2023/08/26 09:00:19;;;;;;;1.40;0.80;;;;;;;23.47;69.84;100177.94;5072127;28;20120;-61
2023/08/26 09:02:47;;;;;;;2.97;0.82;;;;;;;23.44;69.19;100178.06;5069753;28;20035;-61
2023/08/26 09:05:12;;;;;;;1.40;1.10;;;;;;;23.45;68.25;100179.59;5061983;28;20627;-62
2023/08/26 09:07:39;;;;;;;1.98;1.10;;;;;;;23.39;67.67;100176.69;5068482;28;20033;-63
2023/08/26 09:10:07;;;;;;;3.28;0.98;;;;;;;23.41;67.09;100187.22;5068312;28;20074;-61
2023/08/26 09:12:33;;;;;;;1.58;1.00;;;;;;;23.36;67.09;100193.31;5068641;28;20039;-62
2023/08/26 09:14:58;;;;;;;0.50;0.50;;;;;;;23.27;66.88;100192.03;5071507;28;20483;-62
2023/08/26 09:17:24;;;;;;;1.60;0.80;;;;;;;23.20;67.11;100186.81;5069174;28;20028;-59
2023/08/26 09:19:58;;;;;;;1.20;0.90;;;;;;;23.25;67.70;100193.69;5067092;28;20054;-61
2023/08/26 09:22:28;;;;;;;1.33;0.68;;;;;;;23.22;68.39;100192.63;5058069;28;20029;-62
2023/08/26 09:25:02;;;;;;;4.03;1.08;;;;;;;23.06;69.67;100195.59;5070573;28;20112;-62
2023/08/26 09:27:28;;;;;;;1.13;0.90;;;;;;;23.05;72.14;100204.31;5071075;28;20032;-61
2023/08/26 09:29:54;;;;;;;5.32;1.08;;;;;;;22.97;73.49;100203.03;5048536;28;20032;-60
2023/08/26 09:32:36;;;;;;;1.10;0.90;;;;;;;22.79;74.34;100209.19;5049074;28;20025;-61
2023/08/26 09:35:09;;;;;;;1.63;0.70;;;;;;;22.68;74.81;100211.56;5058371;28;20141;-59
2023/08/26 09:37:35;;;;;;;1.48;0.80;;;;;;;22.60;76.24;100221.28;5067876;28;20057;-62
2023/08/26 09:40:01;;;;;;;1.65;0.95;;;;;;;22.55;77.38;100213.56;5071084;28;20558;-62
2023/08/26 09:42:26;;;;;;;1.27;1.08;;;;;;;22.54;79.38;100209.28;5067294;28;20100;-61
2023/08/26 09:44:56;;;;;;;2.28;1.35;;;;;;;22.43;80.74;100211.66;5070665;28;20483;-60
2023/08/26 09:47:22;;;;;;;2.05;1.50;;;;;;;22.34;78.61;100209.59;5069779;28;20032;-61
2023/08/26 09:49:50;;;;;;;1.85;1.40;;;;;;;22.33;81.58;100199.06;5070667;28;20047;-61
2023/08/26 09:52:15;;;;;;;4.45;1.20;;;;;;;22.44;82.02;100207.69;5068867;28;20019;-61
2023/08/26 09:54:44;;;;;;;1.60;1.00;;;;;;;22.57;82.45;100208.41;5049516;28;20040;-60
2023/08/26 09:57:11;;;;;;;1.60;1.15;;;;;;;22.70;81.65;100211.88;5069429;28;20043;-61
2023/08/26 09:59:37;;;;;;;1.30;0.85;;;;;;;22.78;81.19;100210.41;5069385;28;20123;-60
2023/08/26 10:02:17;;;;;;;1.83;1.30;;;;;;;22.91;82.01;100207.56;5050374;28;20135;-61
2023/08/26 10:04:46;;;;;;;4.30;1.23;;;;;;;23.05;80.64;100216.03;5068924;28;20547;-63
2023/08/26 10:07:12;;;;;;;1.60;1.02;;;;;;;23.13;77.99;100211.06;5056139;28;20024;-60
2023/08/26 10:10:09;;;;;;;2.55;1.20;;;;;;;23.12;78.58;100212.25;5051796;28;20029;-61
2023/08/26 10:13:00;;;;;;;1.70;0.90;;;;;;;23.01;77.22;100215.44;5052061;28;20040;-64
2023/08/26 10:15:29;;;;;;;1.20;1.05;;;;;;;23.11;77.71;100217.00;4995662;28;20046;-63
2023/08/26 10:17:58;;;;;;;1.23;0.98;;;;;;;23.22;77.89;100217.38;5001831;28;20108;-62
2023/08/26 10:20:25;;;;;;;1.80;1.33;;;;;;;23.27;77.28;100224.25;4985584;28;20129;-64
2023/08/26 10:22:50;;;;;;;2.60;1.27;;;;;;;23.32;76.72;100222.94;4989628;28;20050;-63
2023/08/26 10:25:17;;;;;;;2.33;1.30;;;;;;;23.40;76.86;100221.44;5002725;28;20381;-63
2023/08/26 10:27:47;;;;;;;1.35;0.95;;;;;;;23.48;74.58;100234.44;4998663;28;20535;-63
2023/08/26 10:30:12;;;;;;;2.25;1.25;;;;;;;23.42;75.11;100235.50;5003812;28;20069;-62
2023/08/26 10:32:44;;;;;;;1.75;1.02;;;;;;;23.49;75.18;100235.19;5003938;28;20504;-63
2023/08/26 10:35:13;;;;;;;1.70;1.08;;;;;;;23.57;75.12;100247.47;5004473;28;20098;-62
2023/08/26 10:37:40;;;;;;;3.00;1.25;;;;;;;23.55;75.10;100256.16;5004741;28;20038;-64
2023/08/26 10:40:12;;;;;;;2.42;1.08;;;;;;;23.54;75.54;100251.88;4999197;28;20053;-63
2023/08/26 10:42:38;;;;;;;1.95;1.00;;;;;;;23.64;75.80;100258.16;5004565;28;20025;-62
2023/08/26 10:45:14;;;;;;;4.55;1.20;;;;;;;23.71;73.16;100249.66;5006045;28;20112;-63
2023/08/26 10:47:46;;;;;;;1.20;1.10;;;;;;;23.78;71.87;100257.63;5001501;28;20913;-62
2023/08/26 10:50:28;;;;;;;2.90;0.98;;;;;;;23.88;72.49;100259.16;5005660;28;20038;-62
2023/08/26 10:52:59;;;;;;;3.38;1.02;;;;;;;23.95;70.34;100269.88;5043291;28;20491;-63
2023/08/26 10:55:32;;;;;;;1.42;0.82;;;;;;;24.16;70.21;100267.06;5065943;28;20107;-63
2023/08/26 10:58:02;;;;;;;1.27;0.85;;;;;;;24.25;68.27;100268.28;5067506;28;20050;-63
2023/08/26 11:00:28;;;;;;;1.10;0.93;;;;;;;24.33;69.36;100262.00;5063935;28;20047;-63
2023/08/26 11:02:57;;;;;;;1.65;1.20;;;;;;;24.48;66.77;100265.72;5066084;28;20024;-63
2023/08/26 11:05:23;;;;;;;1.52;1.00;;;;;;;24.35;68.16;100262.31;5066169;28;20044;-63
2023/08/26 11:07:49;;;;;;;1.65;0.90;;;;;;;24.45;68.09;100255.59;5064664;28;20116;-63
2023/08/26 11:10:40;;;;;;;0.93;0.80;;;;;;;24.32;68.68;100256.97;5044364;28;20160;-61
2023/08/26 11:13:09;;;;;;;1.40;0.80;;;;;;;24.39;68.63;100264.94;5064907;28;20037;-63
2023/08/26 11:15:56;;;;;;;1.05;0.77;;;;;;;24.41;68.11;100257.72;5068903;28;20329;-62
2023/08/26 11:18:22;;;;;;;1.45;0.98;;;;;;;24.60;67.55;100264.75;4989876;28;20042;-62
2023/08/26 11:20:49;;;;;;;2.08;1.20;;;;;;;24.92;65.40;100261.41;4998364;28;20053;-63
2023/08/26 11:23:14;;;;;;;0.75;0.60;;;;;;;25.23;64.58;100260.41;4989338;28;20038;-63
2023/08/26 11:25:40;;;;;;;1.73;1.00;;;;;;;25.37;62.48;100263.28;4989555;28;20404;-63
2023/08/26 11:28:10;;;;;;;0.75;0.75;;;;;;;25.21;62.51;100260.09;4996221;28;20038;-62